createdAt,value
2018-08-30T00:04:26.578Z,16.45
2018-08-30T00:09:29.755Z,16.30
2018-08-30T00:14:33.474Z,16.19
2018-08-30T00:19:36.689Z,16.09
2018-08-30T00:24:39.997Z,15.93
2018-08-30T00:29:43.341Z,15.88
2018-08-30T00:34:46.647Z,15.72
2018-08-30T00:39:49.821Z,15.64
2018-08-30T00:44:53.090Z,15.63
2018-08-30T00:49:56.361Z,15.60
2018-08-30T00:54:59.536Z,15.55
2018-08-30T01:00:03.147Z,15.59
2018-08-30T01:05:06.400Z,15.45
2018-08-30T01:10:09.670Z,15.32
2018-08-30T01:15:13.135Z,15.25
2018-08-30T01:20:16.620Z,15.16
2018-08-30T01:25:19.863Z,15.09
2018-08-30T01:30:23.016Z,15.35
2018-08-30T01:35:26.176Z,15.23
2018-08-30T01:40:29.314Z,15.18
2018-08-30T01:45:32.521Z,15.14
2018-08-30T01:50:35.702Z,15.05
2018-08-30T01:55:39.380Z,14.95
2018-08-30T02:00:42.839Z,14.85
2018-08-30T02:05:46.048Z,14.79
2018-08-30T02:10:49.556Z,14.76
2018-08-30T02:15:52.987Z,14.68
2018-08-30T02:20:56.442Z,14.73
2018-08-30T02:25:59.611Z,14.75
2018-08-30T02:31:02.836Z,14.88
2018-08-30T02:36:05.998Z,14.92
2018-08-30T02:41:09.342Z,14.94
2018-08-30T02:46:12.572Z,14.91
2018-08-30T02:51:15.811Z,14.94
2018-08-30T02:56:19.193Z,14.99
2018-08-30T03:01:22.345Z,15.06
2018-08-30T03:06:25.522Z,15.18
2018-08-30T03:11:28.680Z,15.19
2018-08-30T03:16:33.207Z,15.26
2018-08-30T03:21:36.581Z,15.36
2018-08-30T03:26:39.823Z,15.39
2018-08-30T03:31:43.063Z,15.48
2018-08-30T03:36:46.243Z,15.68
2018-08-30T03:41:49.452Z,15.75
2018-08-30T03:46:52.681Z,15.75
2018-08-30T03:51:55.861Z,15.75
2018-08-30T03:56:59.251Z,15.73
2018-08-30T04:02:02.577Z,15.75
2018-08-30T04:07:05.847Z,15.88
2018-08-30T04:12:09.244Z,15.89
2018-08-30T04:17:12.513Z,15.91
2018-08-30T04:22:15.952Z,15.93
2018-08-30T04:27:20.598Z,15.93
2018-08-30T04:32:24.072Z,16.14
2018-08-30T04:37:27.297Z,16.05
2018-08-30T04:42:30.999Z,16.02
2018-08-30T04:47:34.371Z,15.78
2018-08-30T04:52:37.752Z,15.70
2018-08-30T04:57:40.964Z,15.68
2018-08-30T05:02:44.187Z,15.62
2018-08-30T05:07:47.374Z,15.60
2018-08-30T05:12:51.643Z,15.72
2018-08-30T05:17:54.736Z,15.79
2018-08-30T05:22:58.019Z,15.81
2018-08-30T05:28:01.280Z,15.92
2018-08-30T05:33:04.737Z,16.04
2018-08-30T05:38:07.980Z,16.04
2018-08-30T05:43:11.875Z,16.09
2018-08-30T05:48:15.010Z,16.18
2018-08-30T05:53:19.355Z,16.26
2018-08-30T05:58:22.936Z,16.29
2018-08-30T06:03:26.278Z,16.61
2018-08-30T06:08:29.714Z,17.01
2018-08-30T06:13:33.308Z,17.29
2018-08-30T06:18:37.929Z,17.48
2018-08-30T06:23:42.020Z,17.91
2018-08-30T06:28:45.178Z,18.25
2018-08-30T06:33:48.640Z,18.19
2018-08-30T06:38:52.049Z,17.93
2018-08-30T06:43:55.145Z,17.73
2018-08-30T06:48:58.431Z,17.64
2018-08-30T06:54:02.074Z,17.71
2018-08-30T06:59:05.528Z,17.77
2018-08-30T07:04:09.224Z,17.73
2018-08-30T07:09:12.306Z,17.75
2018-08-30T07:14:15.926Z,17.90
2018-08-30T07:19:19.101Z,18.15
2018-08-30T07:24:22.429Z,18.64
2018-08-30T07:29:25.604Z,18.80
2018-08-30T07:34:29.047Z,19.08
2018-08-30T07:39:32.264Z,19.11
2018-08-30T07:44:36.045Z,18.84
2018-08-30T07:49:39.228Z,18.90
2018-08-30T07:54:44.624Z,18.89
2018-08-30T07:59:48.036Z,18.70
2018-08-30T08:04:51.193Z,18.58
2018-08-30T08:09:54.426Z,18.38
2018-08-30T08:14:57.680Z,18.62
2018-08-30T08:20:00.997Z,18.88
2018-08-30T08:25:05.276Z,18.39
2018-08-30T08:30:08.472Z,18.48
2018-08-30T08:35:11.728Z,18.85
2018-08-30T08:40:15.061Z,18.81
2018-08-30T08:45:18.305Z,18.88
2018-08-30T08:50:23.996Z,18.97
2018-08-30T08:55:27.233Z,18.75
2018-08-30T09:00:30.465Z,18.80
2018-08-30T09:05:33.690Z,19.10
2018-08-30T09:10:36.915Z,19.84
2018-08-30T09:15:40.041Z,19.73
2018-08-30T09:20:43.304Z,19.53
2018-08-30T09:25:46.469Z,19.07
2018-08-30T09:30:49.671Z,19.19
2018-08-30T09:35:52.910Z,19.29
2018-08-30T09:40:56.109Z,19.31
2018-08-30T09:45:59.377Z,19.27
2018-08-30T09:51:02.613Z,19.19
2018-08-30T09:56:06.210Z,19.07
2018-08-30T10:01:09.592Z,19.13
2018-08-30T10:06:12.979Z,19.11
2018-08-30T10:11:16.222Z,19.05
2018-08-30T10:16:19.609Z,18.70
2018-08-30T10:21:22.895Z,18.67
2018-08-30T10:26:26.815Z,18.78
2018-08-30T10:31:30.903Z,18.63
2018-08-30T10:36:34.041Z,18.73
2018-08-30T10:41:37.475Z,18.82
2018-08-30T10:46:42.295Z,19.05
2018-08-30T10:51:45.527Z,19.14
2018-08-30T10:56:48.869Z,18.86
2018-08-30T11:01:52.455Z,18.73
2018-08-30T11:06:56.145Z,18.96
2018-08-30T11:12:00.027Z,18.92
2018-08-30T11:17:03.673Z,18.64
2018-08-30T11:22:06.912Z,18.40
2018-08-30T11:27:10.125Z,18.19
2018-08-30T11:32:13.571Z,17.82
2018-08-30T11:37:16.800Z,18.08
2018-08-30T11:42:20.074Z,18.24
2018-08-30T11:47:23.904Z,18.73
2018-08-30T11:52:27.154Z,19.31
2018-08-30T11:57:31.005Z,19.42
2018-08-30T12:02:34.214Z,19.41
2018-08-30T12:07:37.475Z,20.04
2018-08-30T12:12:40.670Z,21.00
2018-08-30T12:17:44.038Z,20.24
2018-08-30T12:22:47.347Z,19.73
2018-08-30T12:27:50.540Z,19.52
2018-08-30T12:32:53.777Z,18.77
